createdAt,value
2023-05-14T00:00:54.626Z,66.04
2023-05-14T00:05:04.172Z,66.20
2023-05-14T00:09:06.148Z,66.53
2023-05-14T00:13:08.134Z,66.72
2023-05-14T00:17:10.249Z,66.64
2023-05-14T00:21:12.581Z,66.41
2023-05-14T00:25:14.515Z,66.46
2023-05-14T00:29:16.554Z,66.36
2023-05-14T00:33:18.816Z,66.79
2023-05-14T00:37:20.813Z,67.16
2023-05-14T00:41:23.096Z,67.26
2023-05-14T00:45:25.553Z,67.34
2023-05-14T00:49:28.278Z,67.61
2023-05-14T00:53:30.761Z,67.93
2023-05-14T00:57:35.627Z,67.87
2023-05-14T01:01:37.714Z,67.68
2023-05-14T01:05:55.978Z,67.62
2023-05-14T01:10:08.571Z,67.73
2023-05-14T01:14:22.837Z,68.01
2023-05-14T01:18:25.648Z,67.95
2023-05-14T01:22:27.605Z,67.75
2023-05-14T01:26:31.131Z,67.98
2023-05-14T01:30:43.071Z,68.37
2023-05-14T01:34:48.336Z,68.48
2023-05-14T01:38:51.340Z,68.80
2023-05-14T01:42:56.052Z,68.92
2023-05-14T01:46:57.998Z,68.90
2023-05-14T01:51:00.110Z,68.74
2023-05-14T01:55:02.156Z,69.44
2023-05-14T01:59:04.158Z,69.97
2023-05-14T02:03:06.222Z,70.01
2023-05-14T02:07:08.228Z,69.80
2023-05-14T02:11:10.150Z,69.74
2023-05-14T02:15:12.239Z,69.89
2023-05-14T02:19:14.222Z,70.53
2023-05-14T02:23:16.285Z,70.72
2023-05-14T02:27:19.315Z,70.70
2023-05-14T02:31:21.340Z,70.57
2023-05-14T02:35:23.352Z,70.37
2023-05-14T02:39:25.316Z,70.30
2023-05-14T02:43:27.364Z,70.94
2023-05-14T02:47:29.438Z,71.26
2023-05-14T02:51:31.555Z,71.37
2023-05-14T02:55:33.835Z,70.84
2023-05-14T02:59:35.914Z,70.47
2023-05-14T03:03:38.083Z,70.71
2023-05-14T03:07:40.523Z,70.80
2023-05-14T03:11:42.452Z,70.75
2023-05-14T03:15:44.366Z,70.94
2023-05-14T03:19:46.376Z,71.51
2023-05-14T03:23:48.296Z,71.82
2023-05-14T03:27:50.249Z,71.95
2023-05-14T03:31:53.911Z,72.06
2023-05-14T03:35:55.903Z,72.44
2023-05-14T03:39:58.378Z,72.43
2023-05-14T03:44:00.601Z,72.71
2023-05-14T03:48:03.174Z,73.10
2023-05-14T03:52:06.193Z,73.10
2023-05-14T03:56:08.110Z,72.94
2023-05-14T04:00:11.025Z,73.00
2023-05-14T04:04:19.288Z,73.05
2023-05-14T04:08:21.204Z,73.32
2023-05-14T04:12:24.641Z,73.41
2023-05-14T04:16:26.627Z,73.18
2023-05-14T04:20:28.699Z,72.65
2023-05-14T04:24:30.776Z,72.46
2023-05-14T04:28:32.735Z,72.46
2023-05-14T04:32:34.996Z,72.12
2023-05-14T04:36:37.016Z,71.19
2023-05-14T04:40:39.094Z,70.69
2023-05-14T04:44:41.139Z,70.48
2023-05-14T04:48:43.157Z,70.27
2023-05-14T04:52:45.246Z,69.65
2023-05-14T04:56:47.317Z,68.75
2023-05-14T05:00:49.985Z,68.21
2023-05-14T05:04:52.055Z,67.69
2023-05-14T05:08:55.669Z,67.05
2023-05-14T05:12:57.687Z,66.14
2023-05-14T05:16:59.655Z,65.43
2023-05-14T05:21:01.587Z,64.70
2023-05-14T05:25:07.731Z,64.36
2023-05-14T05:29:09.843Z,64.13
2023-05-14T05:33:12.538Z,63.48
2023-05-14T05:37:14.700Z,63.37
2023-05-14T05:41:16.906Z,63.16
2023-05-14T05:45:18.911Z,63.08
2023-05-14T05:49:21.130Z,63.16
2023-05-14T05:53:23.229Z,62.88
2023-05-14T05:57:29.460Z,62.66
2023-05-14T06:01:32.500Z,62.64
2023-05-14T06:05:34.684Z,62.00
2023-05-14T06:09:36.858Z,60.52
2023-05-14T06:13:38.986Z,59.89
2023-05-14T06:17:41.095Z,59.11
2023-05-14T06:21:43.842Z,58.15
2023-05-14T06:25:45.856Z,57.85
2023-05-14T06:29:48.161Z,57.07
2023-05-14T06:33:50.195Z,55.79
2023-05-14T06:37:52.673Z,54.90
2023-05-14T06:41:54.895Z,54.83
2023-05-14T06:45:58.109Z,53.92
2023-05-14T06:50:01.472Z,53.08
2023-05-14T06:54:03.691Z,52.19
2023-05-14T06:58:09.170Z,51.64
2023-05-14T07:02:12.141Z,50.39
2023-05-14T07:06:14.185Z,49.70
2023-05-14T07:10:16.323Z,48.99
2023-05-14T07:14:18.553Z,48.79
2023-05-14T07:18:20.610Z,48.91
2023-05-14T07:22:22.525Z,48.77
2023-05-14T07:26:24.575Z,47.69
2023-05-14T07:30:26.718Z,46.59
2023-05-14T07:34:28.727Z,44.88
2023-05-14T07:38:31.250Z,44.44
2023-05-14T07:42:37.035Z,44.42
2023-05-14T07:46:39.484Z,43.81
2023-05-14T07:50:41.383Z,43.30
2023-05-14T07:54:43.288Z,41.86
2023-05-14T07:58:45.736Z,41.29
2023-05-14T08:02:48.743Z,40.09
2023-05-14T08:06:51.172Z,39.55
2023-05-14T08:10:53.166Z,38.51
2023-05-14T08:14:55.794Z,38.64
2023-05-14T08:18:57.849Z,38.71
2023-05-14T08:22:59.903Z,38.82
2023-05-14T08:27:01.947Z,38.67
2023-05-14T08:31:04.277Z,38.60
2023-05-14T08:35:06.858Z,38.34
2023-05-14T08:39:08.788Z,38.22
2023-05-14T08:43:11.789Z,37.41
2023-05-14T08:47:15.678Z,36.70
2023-05-14T08:51:17.626Z,36.20
2023-05-14T08:55:19.939Z,36.00
2023-05-14T08:59:22.050Z,36.12
2023-05-14T09:03:24.013Z,35.48
2023-05-14T09:07:26.366Z,35.22
2023-05-14T09:11:28.362Z,35.37
2023-05-14T09:15:31.402Z,35.02
2023-05-14T09:19:33.387Z,35.50
2023-05-14T09:23:35.528Z,34.44
2023-05-14T09:27:38.374Z,33.70
2023-05-14T09:31:40.781Z,33.50
2023-05-14T09:35:43.118Z,33.78
2023-05-14T09:39:45.100Z,32.86
2023-05-14T09:43:47.042Z,32.94
2023-05-14T09:47:49.089Z,32.72
2023-05-14T09:51:51.287Z,32.43
2023-05-14T09:55:53.169Z,32.72
2023-05-14T09:59:55.254Z,32.43
2023-05-14T10:03:57.229Z,31.33
2023-05-14T10:08:03.497Z,31.17
2023-05-14T10:12:06.409Z,30.94
2023-05-14T10:16:17.736Z,30.54
2023-05-14T10:20:22.418Z,30.75
2023-05-14T10:24:25.403Z,30.11
2023-05-14T10:28:27.975Z,29.55
2023-05-14T10:32:32.739Z,29.71
2023-05-14T10:36:35.273Z,30.03
2023-05-14T10:40:38.820Z,29.97
2023-05-14T10:44:48.693Z,30.21
2023-05-14T10:48:50.654Z,29.94
2023-05-14T10:52:52.699Z,29.51
2023-05-14T10:56:58.774Z,29.74
2023-05-14T11:01:01.768Z,30.03
2023-05-14T11:05:13.581Z,30.19
2023-05-14T11:09:17.365Z,29.20
2023-05-14T11:13:19.595Z,29.49
2023-05-14T11:17:21.891Z,29.52
2023-05-14T11:21:23.963Z,28.99
2023-05-14T11:25:25.986Z,28.46
2023-05-14T11:29:28.073Z,28.32
2023-05-14T11:33:30.065Z,29.03
2023-05-14T11:37:32.067Z,28.92
2023-05-14T11:41:34.070Z,29.05
2023-05-14T11:45:36.480Z,28.78
2023-05-14T11:49:38.574Z,28.70
2023-05-14T11:53:40.595Z,28.39
2023-05-14T11:57:42.659Z,28.42
2023-05-14T12:01:49.552Z,28.82
2023-05-14T12:06:00.411Z,28.81
2023-05-14T12:10:03.646Z,28.42
2023-05-14T12:14:19.211Z,28.87
2023-05-14T12:18:24.929Z,28.64
2023-05-14T12:22:29.397Z,28.34
2023-05-14T12:26:34.474Z,28.29
2023-05-14T12:30:39.378Z,27.91
2023-05-14T12:34:41.250Z,27.27
2023-05-14T12:38:43.906Z,27.22
2023-05-14T12:42:45.866Z,27.94
2023-05-14T12:46:47.818Z,28.07
2023-05-14T12:50:49.875Z,27.96
2023-05-14T12:54:51.747Z,27.72
2023-05-14T12:58:55.856Z,27.56
2023-05-14T13:02:57.764Z,27.59
2023-05-14T13:06:59.807Z,27.49
2023-05-14T13:11:01.767Z,27.56
2023-05-14T13:15:04.878Z,27.95
2023-05-14T13:19:06.974Z,28.09
2023-05-14T13:23:09.099Z,28.04
2023-05-14T13:27:11.279Z,27.40
2023-05-14T13:31:16.649Z,27.55
2023-05-14T13:35:18.771Z,27.70
2023-05-14T13:39:22.299Z,27.97
2023-05-14T13:43:24.278Z,28.18
2023-05-14T13:47:26.400Z,28.14
2023-05-14T13:51:28.368Z,27.74
2023-05-14T13:55:30.288Z,27.95
2023-05-14T13:59:32.504Z,27.75
2023-05-14T14:03:34.371Z,27.47
2023-05-14T14:07:36.354Z,27.62
2023-05-14T14:11:38.828Z,27.90
2023-05-14T14:15:40.746Z,27.56
2023-05-14T14:19:42.648Z,27.80
2023-05-14T14:23:48.053Z,27.98
2023-05-14T14:27:50.629Z,28.13
2023-05-14T14:31:52.585Z,28.27
2023-05-14T14:35:54.494Z,28.24
2023-05-14T14:39:56.416Z,28.10
2023-05-14T14:43:58.499Z,27.81
2023-05-14T14:48:22.267Z,28.10
2023-05-14T14:52:25.659Z,27.96
2023-05-14T14:56:27.638Z,27.83
2023-05-14T15:00:29.797Z,27.86
2023-05-14T15:04:33.686Z,27.91
2023-05-14T15:08:35.613Z,27.79
2023-05-14T15:12:37.825Z,28.22
2023-05-14T15:16:39.783Z,28.31
2023-05-14T15:20:41.755Z,28.07
2023-05-14T15:24:43.613Z,27.83
2023-05-14T15:28:45.526Z,28.00
2023-05-14T15:32:47.498Z,28.27
2023-05-14T15:36:49.393Z,28.24
2023-05-14T15:40:51.304Z,27.76
2023-05-14T15:44:53.245Z,27.79
2023-05-14T15:48:55.136Z,28.44
2023-05-14T15:52:57.099Z,28.35
2023-05-14T15:56:58.997Z,28.61
2023-05-14T16:01:02.243Z,28.97
2023-05-14T16:05:04.482Z,29.16
2023-05-14T16:09:06.511Z,29.03
2023-05-14T16:13:08.403Z,28.80
2023-05-14T16:17:10.690Z,29.00
2023-05-14T16:21:12.712Z,29.12
2023-05-14T16:25:14.646Z,28.91
2023-05-14T16:29:16.650Z,28.86
2023-05-14T16:33:18.580Z,29.38
2023-05-14T16:37:20.650Z,29.49
2023-05-14T16:41:22.452Z,29.72
2023-05-14T16:45:24.618Z,30.04
2023-05-14T16:49:26.904Z,30.25
2023-05-14T16:53:28.857Z,30.36
2023-05-14T16:57:31.106Z,30.35
2023-05-14T17:01:33.316Z,30.41
2023-05-14T17:05:35.316Z,30.74
2023-05-14T17:09:38.014Z,30.99
2023-05-14T17:13:39.900Z,31.07
2023-05-14T17:17:50.327Z,31.24
2023-05-14T17:21:52.508Z,31.58
2023-05-14T17:25:56.121Z,31.76
2023-05-14T17:29:58.091Z,32.00
2023-05-14T17:34:00.311Z,32.40
2023-05-14T17:38:02.778Z,32.60
2023-05-14T17:42:05.691Z,32.83
2023-05-14T17:46:07.577Z,33.11
2023-05-14T17:50:09.925Z,33.36
2023-05-14T17:54:11.818Z,33.74
2023-05-14T17:58:16.349Z,33.97
2023-05-14T18:02:18.224Z,34.29
2023-05-14T18:06:20.301Z,34.72
2023-05-14T18:10:22.192Z,35.12
2023-05-14T18:14:24.032Z,35.41
2023-05-14T18:18:26.304Z,35.97
2023-05-14T18:22:28.197Z,36.42
2023-05-14T18:26:31.265Z,36.92
2023-05-14T18:30:34.885Z,37.31
2023-05-14T18:34:36.793Z,37.81
2023-05-14T18:38:40.326Z,38.31
2023-05-14T18:42:42.368Z,38.71
2023-05-14T18:46:44.398Z,39.07
2023-05-14T18:50:46.653Z,39.35
2023-05-14T18:54:48.542Z,39.72
2023-05-14T18:58:52.275Z,40.13
2023-05-14T19:02:54.359Z,40.51
2023-05-14T19:06:56.411Z,40.72
2023-05-14T19:10:58.307Z,41.04
2023-05-14T19:15:00.659Z,41.38
2023-05-14T19:19:02.898Z,41.80
2023-05-14T19:23:04.967Z,42.20
2023-05-14T19:27:07.617Z,42.51
2023-05-14T19:31:10.640Z,42.78
2023-05-14T19:35:13.740Z,43.18
2023-05-14T19:39:15.944Z,43.55
2023-05-14T19:43:18.116Z,43.99
2023-05-14T19:47:20.174Z,44.39
2023-05-14T19:51:22.205Z,45.04
2023-05-14T19:55:24.805Z,45.64
2023-05-14T19:59:29.017Z,45.82
2023-05-14T20:03:31.725Z,46.22
2023-05-14T20:07:39.610Z,46.45
2023-05-14T20:11:42.305Z,46.89
2023-05-14T20:15:45.683Z,47.01
2023-05-14T20:19:47.814Z,47.24
2023-05-14T20:23:49.751Z,47.35
2023-05-14T20:27:52.112Z,47.63
2023-05-14T20:31:54.078Z,48.09
2023-05-14T20:35:56.103Z,48.43
2023-05-14T20:39:59.314Z,48.79
2023-05-14T20:44:01.427Z,48.78
2023-05-14T20:48:09.292Z,49.23
2023-05-14T20:52:12.461Z,49.39
2023-05-14T20:56:14.414Z,49.73
2023-05-14T21:00:16.871Z,49.98
2023-05-14T21:04:19.107Z,50.08
2023-05-14T21:08:21.162Z,50.40
2023-05-14T21:12:23.055Z,50.58
2023-05-14T21:16:25.297Z,50.73
2023-05-14T21:20:27.280Z,50.95
2023-05-14T21:24:29.176Z,51.23
2023-05-14T21:28:32.455Z,51.39
2023-05-14T21:32:34.458Z,51.48
2023-05-14T21:36:36.710Z,51.52
2023-05-14T21:40:38.689Z,51.68
2023-05-14T21:44:40.580Z,51.77
2023-05-14T21:48:42.669Z,51.78
2023-05-14T21:52:44.621Z,51.91
2023-05-14T21:56:46.848Z,51.90
2023-05-14T22:00:49.005Z,51.94
2023-05-14T22:04:50.969Z,52.02
2023-05-14T22:08:53.143Z,51.80
2023-05-14T22:12:55.262Z,51.73
2023-05-14T22:16:57.255Z,51.65
2023-05-14T22:20:59.835Z,51.55
2023-05-14T22:25:03.015Z,51.48
2023-05-14T22:29:05.128Z,51.47
2023-05-14T22:33:07.072Z,51.27
2023-05-14T22:37:09.040Z,51.23
2023-05-14T22:41:11.091Z,51.06
2023-05-14T22:45:13.133Z,50.90
2023-05-14T22:49:15.438Z,50.82
2023-05-14T22:53:17.734Z,50.61
2023-05-14T22:57:19.873Z,50.48
2023-05-14T23:01:21.964Z,50.45
2023-05-14T23:05:24.271Z,50.35
2023-05-14T23:09:26.587Z,50.27
2023-05-14T23:13:28.524Z,50.20
2023-05-14T23:17:30.488Z,50.10
2023-05-14T23:21:32.557Z,50.02
2023-05-14T23:25:34.485Z,49.96
2023-05-14T23:29:36.540Z,49.96
2023-05-14T23:33:39.497Z,49.96
2023-05-14T23:37:46.531Z,50.00
2023-05-14T23:41:48.408Z,50.00
2023-05-14T23:45:50.356Z,50.04
2023-05-14T23:49:52.323Z,50.04
2023-05-14T23:53:57.899Z,50.18
2023-05-14T23:57:59.907Z,50.33
